sensor_id;sensor_type;location;lat;lon;timestamp;pressure;altitude;pressure_sealevel;temperature;humidity
72086;BME280;64750;52.134;5.424;2023-03-14T00:01:17;99030.50;;;10.59;83.54
72086;BME280;64750;52.134;5.424;2023-03-14T00:03:44;99036.88;;;10.57;83.46
72086;BME280;64750;52.134;5.424;2023-03-14T00:06:12;99035.91;;;10.58;83.63
72086;BME280;64750;52.134;5.424;2023-03-14T00:08:39;99036.88;;;10.57;83.74
72086;BME280;64750;52.134;5.424;2023-03-14T00:11:24;99032.56;;;10.56;83.52
72086;BME280;64750;52.134;5.424;2023-03-14T00:13:51;99044.19;;;10.53;83.69
72086;BME280;64750;52.134;5.424;2023-03-14T00:16:19;99041.69;;;10.52;83.88
72086;BME280;64750;52.134;5.424;2023-03-14T00:18:45;99031.44;;;10.48;83.69
72086;BME280;64750;52.134;5.424;2023-03-14T00:21:12;99031.44;;;10.48;83.70
72086;BME280;64750;52.134;5.424;2023-03-14T00:23:40;99032.97;;;10.51;83.73
72086;BME280;64750;52.134;5.424;2023-03-14T00:26:12;99019.03;;;10.50;83.27
72086;BME280;64750;52.134;5.424;2023-03-14T00:28:40;99026.19;;;10.48;83.19
72086;BME280;64750;52.134;5.424;2023-03-14T00:31:09;99030.63;;;10.48;82.59
72086;BME280;64750;52.134;5.424;2023-03-14T00:33:36;99027.31;;;10.46;82.30
72086;BME280;64750;52.134;5.424;2023-03-14T00:36:12;99034.22;;;10.47;81.90
72086;BME280;64750;52.134;5.424;2023-03-14T00:38:41;99026.47;;;10.45;81.19
72086;BME280;64750;52.134;5.424;2023-03-14T00:41:13;99047.50;;;10.45;80.93
72086;BME280;64750;52.134;5.424;2023-03-14T00:43:39;99031.75;;;10.45;80.57
72086;BME280;64750;52.134;5.424;2023-03-14T00:46:06;99048.59;;;10.43;80.52
72086;BME280;64750;52.134;5.424;2023-03-14T00:48:33;99044.16;;;10.43;80.70
72086;BME280;64750;52.134;5.424;2023-03-14T00:51:00;99032.69;;;10.44;80.52
72086;BME280;64750;52.134;5.424;2023-03-14T00:53:27;99036.28;;;10.43;80.37
72086;BME280;64750;52.134;5.424;2023-03-14T00:55:53;99035.19;;;10.46;80.44
72086;BME280;64750;52.134;5.424;2023-03-14T00:58:20;99040.72;;;10.43;80.57
72086;BME280;64750;52.134;5.424;2023-03-14T01:00:46;99040.84;;;10.41;80.65
72086;BME280;64750;52.134;5.424;2023-03-14T01:03:14;99047.88;;;10.41;80.25
72086;BME280;64750;52.134;5.424;2023-03-14T01:05:40;99048.03;;;10.39;80.32
72086;BME280;64750;52.134;5.424;2023-03-14T01:08:07;99054.25;;;10.38;80.34
72086;BME280;64750;52.134;5.424;2023-03-14T01:10:38;99053.56;;;10.36;80.48
72086;BME280;64750;52.134;5.424;2023-03-14T01:13:05;99054.06;;;10.30;80.45
72086;BME280;64750;52.134;5.424;2023-03-14T01:15:35;99060.28;;;10.29;80.64
72086;BME280;64750;52.134;5.424;2023-03-14T01:18:02;99056.97;;;10.27;80.83
72086;BME280;64750;52.134;5.424;2023-03-14T01:20:29;99064.44;;;10.22;81.28
72086;BME280;64750;52.134;5.424;2023-03-14T01:22:55;99055.13;;;10.17;81.81
72086;BME280;64750;52.134;5.424;2023-03-14T01:25:21;99069.50;;;10.13;82.04
72086;BME280;64750;52.134;5.424;2023-03-14T01:27:48;99077.50;;;10.12;82.58
72086;BME280;64750;52.134;5.424;2023-03-14T01:30:14;99069.34;;;10.05;83.06
72086;BME280;64750;52.134;5.424;2023-03-14T01:32:41;99069.88;;;9.99;83.61
72086;BME280;64750;52.134;5.424;2023-03-14T01:35:08;99064.19;;;9.94;84.13
72086;BME280;64750;52.134;5.424;2023-03-14T01:37:34;99075.63;;;9.93;84.57
72086;BME280;64750;52.134;5.424;2023-03-14T01:40:01;99055.59;;;9.92;84.89
72086;BME280;64750;52.134;5.424;2023-03-14T01:42:27;99063.09;;;9.96;84.89
72086;BME280;64750;52.134;5.424;2023-03-14T01:44:57;99064.44;;;9.91;85.02
72086;BME280;64750;52.134;5.424;2023-03-14T01:47:24;99066.09;;;9.92;85.13
72086;BME280;64750;52.134;5.424;2023-03-14T01:50:01;99058.38;;;9.90;85.31
72086;BME280;64750;52.134;5.424;2023-03-14T01:52:36;99044.28;;;9.91;85.47
72086;BME280;64750;52.134;5.424;2023-03-14T01:55:13;99039.84;;;9.92;85.54
72086;BME280;64750;52.134;5.424;2023-03-14T01:57:45;99039.19;;;9.90;85.08
72086;BME280;64750;52.134;5.424;2023-03-14T02:00:14;99033.06;;;9.89;85.14
72086;BME280;64750;52.134;5.424;2023-03-14T02:02:43;99026.50;;;9.95;85.35
72086;BME280;64750;52.134;5.424;2023-03-14T02:05:12;99031.03;;;9.93;85.04
72086;BME280;64750;52.134;5.424;2023-03-14T02:07:48;99031.97;;;9.92;85.11
72086;BME280;64750;52.134;5.424;2023-03-14T02:10:17;99027.69;;;9.91;85.10
72086;BME280;64750;52.134;5.424;2023-03-14T02:12:48;99034.59;;;9.92;84.62
72086;BME280;64750;52.134;5.424;2023-03-14T02:15:14;99029.63;;;9.89;84.54
72086;BME280;64750;52.134;5.424;2023-03-14T02:17:42;99027.69;;;9.91;84.65
72086;BME280;64750;52.134;5.424;2023-03-14T02:22:45;99027.16;;;9.87;84.23
72086;BME280;64750;52.134;5.424;2023-03-14T02:27:53;99017.59;;;9.86;84.39
72086;BME280;64750;52.134;5.424;2023-03-14T02:30:25;99014.13;;;9.85;84.11
72086;BME280;64750;52.134;5.424;2023-03-14T02:32:56;99010.84;;;9.83;84.16
72086;BME280;64750;52.134;5.424;2023-03-14T02:35:29;99021.34;;;9.83;84.22
72086;BME280;64750;52.134;5.424;2023-03-14T02:38:07;99027.53;;;9.82;84.15
72086;BME280;64750;52.134;5.424;2023-03-14T02:40:36;99016.09;;;9.83;84.15
72086;BME280;64750;52.134;5.424;2023-03-14T02:43:03;99019.66;;;9.82;83.94
72086;BME280;64750;52.134;5.424;2023-03-14T02:45:39;99014.41;;;9.82;83.87
72086;BME280;64750;52.134;5.424;2023-03-14T02:48:10;99016.31;;;9.80;84.03
72086;BME280;64750;52.134;5.424;2023-03-14T02:50:38;99012.75;;;9.81;83.96
72086;BME280;64750;52.134;5.424;2023-03-14T02:53:04;99005.59;;;9.83;84.10
72086;BME280;64750;52.134;5.424;2023-03-14T02:55:31;99004.50;;;9.86;84.10
72086;BME280;64750;52.134;5.424;2023-03-14T02:57:57;98995.66;;;9.87;84.25
72086;BME280;64750;52.134;5.424;2023-03-14T03:00:24;98992.31;;;9.85;84.15
72086;BME280;64750;52.134;5.424;2023-03-14T03:02:51;98993.84;;;9.88;83.92
72086;BME280;64750;52.134;5.424;2023-03-14T03:05:18;98993.72;;;9.89;84.15
72086;BME280;64750;52.134;5.424;2023-03-14T03:07:44;98992.06;;;9.88;83.88
72086;BME280;64750;52.134;5.424;2023-03-14T03:10:11;98995.53;;;9.89;84.20
72086;BME280;64750;52.134;5.424;2023-03-14T03:12:37;98983.09;;;9.91;84.04
72086;BME280;64750;52.134;5.424;2023-03-14T03:15:04;98986.56;;;9.91;84.07
72086;BME280;64750;52.134;5.424;2023-03-14T03:17:30;98985.69;;;9.91;84.02
72086;BME280;64750;52.134;5.424;2023-03-14T03:19:57;98995.78;;;9.85;83.97
72086;BME280;64750;52.134;5.424;2023-03-14T03:22:23;98990.94;;;9.81;84.00
72086;BME280;64750;52.134;5.424;2023-03-14T03:24:50;98990.38;;;9.77;84.10
72086;BME280;64750;52.134;5.424;2023-03-14T03:27:16;98983.22;;;9.79;84.41
72086;BME280;64750;52.134;5.424;2023-03-14T03:29:43;98979.75;;;9.79;84.37
72086;BME280;64750;52.134;5.424;2023-03-14T03:32:09;98975.59;;;9.76;84.39
72086;BME280;64750;52.134;5.424;2023-03-14T03:34:35;98974.34;;;9.80;84.17
72086;BME280;64750;52.134;5.424;2023-03-14T03:37:02;98978.63;;;9.81;84.15
72086;BME280;64750;52.134;5.424;2023-03-14T03:39:28;98982.22;;;9.80;84.21
72086;BME280;64750;52.134;5.424;2023-03-14T03:41:55;98976.00;;;9.81;84.32
72086;BME280;64750;52.134;5.424;2023-03-14T03:44:22;98967.19;;;9.82;83.81
72086;BME280;64750;52.134;5.424;2023-03-14T03:46:48;98955.97;;;9.80;83.64
72086;BME280;64750;52.134;5.424;2023-03-14T03:49:15;98956.69;;;9.82;83.80
72086;BME280;64750;52.134;5.424;2023-03-14T03:51:41;98952.25;;;9.83;83.63
72086;BME280;64750;52.134;5.424;2023-03-14T03:54:07;98961.13;;;9.82;83.24
72086;BME280;64750;52.134;5.424;2023-03-14T03:56:34;98958.50;;;9.82;83.42
72086;BME280;64750;52.134;5.424;2023-03-14T03:59:00;98960.13;;;9.83;83.41
72086;BME280;64750;52.134;5.424;2023-03-14T04:01:27;98958.59;;;9.80;83.44
72086;BME280;64750;52.134;5.424;2023-03-14T04:03:53;98956.69;;;9.82;83.21
72086;BME280;64750;52.134;5.424;2023-03-14T04:06:20;98958.34;;;9.83;83.35
72086;BME280;64750;52.134;5.424;2023-03-14T04:08:46;98964.44;;;9.84;83.26
72086;BME280;64750;52.134;5.424;2023-03-14T04:11:13;98961.56;;;9.87;83.00
72086;BME280;64750;52.134;5.424;2023-03-14T04:13:41;98963.47;;;9.85;82.94
72086;BME280;64750;52.134;5.424;2023-03-14T04:16:25;98963.31;;;9.87;82.79
72086;BME280;64750;52.134;5.424;2023-03-14T04:18:52;98969.41;;;9.87;82.65
72086;BME280;64750;52.134;5.424;2023-03-14T04:21:18;98968.56;;;9.87;82.34
72086;BME280;64750;52.134;5.424;2023-03-14T04:23:45;98965.81;;;9.88;82.71
72086;BME280;64750;52.134;5.424;2023-03-14T04:26:11;98970.94;;;9.90;82.41
72086;BME280;64750;52.134;5.424;2023-03-14T04:28:38;98965.69;;;9.90;82.65
72086;BME280;64750;52.134;5.424;2023-03-14T04:33:35;98968.31;;;9.90;82.26
72086;BME280;64750;52.134;5.424;2023-03-14T04:36:04;98965.00;;;9.88;82.15
72086;BME280;64750;52.134;5.424;2023-03-14T04:38:31;98969.16;;;9.90;82.22
72086;BME280;64750;52.134;5.424;2023-03-14T04:40:58;98954.34;;;9.89;82.34
72086;BME280;64750;52.134;5.424;2023-03-14T04:43:26;98967.22;;;9.92;82.12
72086;BME280;64750;52.134;5.424;2023-03-14T04:45:57;98957.53;;;9.93;82.16
72086;BME280;64750;52.134;5.424;2023-03-14T04:48:25;98952.31;;;9.93;82.21
72086;BME280;64750;52.134;5.424;2023-03-14T04:50:52;98947.06;;;9.93;82.31
72086;BME280;64750;52.134;5.424;2023-03-14T04:53:18;98948.16;;;9.90;82.18
72086;BME280;64750;52.134;5.424;2023-03-14T04:55:53;98948.28;;;9.89;82.41
72086;BME280;64750;52.134;5.424;2023-03-14T04:58:20;98946.47;;;9.89;82.38
72086;BME280;64750;52.134;5.424;2023-03-14T05:00:47;98938.47;;;9.91;82.34
72086;BME280;64750;52.134;5.424;2023-03-14T05:03:15;98944.56;;;9.91;82.36
72086;BME280;64750;52.134;5.424;2023-03-14T05:05:42;98943.59;;;9.92;82.30
72086;BME280;64750;52.134;5.424;2023-03-14T05:08:08;98941.09;;;9.91;82.57
72086;BME280;64750;52.134;5.424;2023-03-14T05:10:35;98946.22;;;9.92;82.72
72086;BME280;64750;52.134;5.424;2023-03-14T05:13:02;98949.81;;;9.91;82.92
72086;BME280;64750;52.134;5.424;2023-03-14T05:15:28;98953.78;;;9.85;83.75
72086;BME280;64750;52.134;5.424;2023-03-14T05:17:55;98944.66;;;9.80;84.34
72086;BME280;64750;52.134;5.424;2023-03-14T05:20:21;98946.47;;;9.79;84.85
72086;BME280;64750;52.134;5.424;2023-03-14T05:22:47;98932.09;;;9.74;85.23
72086;BME280;64750;52.134;5.424;2023-03-14T05:25:14;98931.50;;;9.70;85.82
72086;BME280;64750;52.134;5.424;2023-03-14T05:27:40;98929.88;;;9.69;85.86
72086;BME280;64750;52.134;5.424;2023-03-14T05:30:07;98932.50;;;9.69;86.20
72086;BME280;64750;52.134;5.424;2023-03-14T05:32:34;98932.63;;;9.67;86.28
72086;BME280;64750;52.134;5.424;2023-03-14T05:35:00;98927.25;;;9.69;86.45
72086;BME280;64750;52.134;5.424;2023-03-14T05:37:27;98937.19;;;9.65;86.74
72086;BME280;64750;52.134;5.424;2023-03-14T05:39:53;98934.66;;;9.64;86.67
72086;BME280;64750;52.134;5.424;2023-03-14T05:42:20;98935.38;;;9.66;86.93
72086;BME280;64750;52.134;5.424;2023-03-14T05:44:46;98935.66;;;9.63;87.14
72086;BME280;64750;52.134;5.424;2023-03-14T05:47:13;98937.19;;;9.65;86.93
72086;BME280;64750;52.134;5.424;2023-03-14T05:49:39;98942.53;;;9.64;86.80
72086;BME280;64750;52.134;5.424;2023-03-14T05:52:06;98936.88;;;9.59;87.19
72086;BME280;64750;52.134;5.424;2023-03-14T05:54:32;98938.53;;;9.60;87.49
72086;BME280;64750;52.134;5.424;2023-03-14T05:56:59;98934.81;;;9.62;87.43
72086;BME280;64750;52.134;5.424;2023-03-14T05:59:25;98932.47;;;9.59;87.33
72086;BME280;64750;52.134;5.424;2023-03-14T06:01:51;98939.25;;;9.62;87.60
72086;BME280;64750;52.134;5.424;2023-03-14T06:04:18;98929.56;;;9.62;87.64
72086;BME280;64750;52.134;5.424;2023-03-14T06:06:44;98929.84;;;9.59;87.90
72086;BME280;64750;52.134;5.424;2023-03-14T06:09:11;98929.00;;;9.59;87.93
72086;BME280;64750;52.134;5.424;2023-03-14T06:11:37;98916.88;;;9.58;88.11
72086;BME280;64750;52.134;5.424;2023-03-14T06:14:03;98932.16;;;9.52;88.22
72086;BME280;64750;52.134;5.424;2023-03-14T06:16:30;98931.19;;;9.53;88.17
72086;BME280;64750;52.134;5.424;2023-03-14T06:18:58;98936.44;;;9.53;88.40
72086;BME280;64750;52.134;5.424;2023-03-14T06:21:25;98934.66;;;9.54;88.64
72086;BME280;64750;52.134;5.424;2023-03-14T06:23:51;98940.28;;;9.49;88.70
72086;BME280;64750;52.134;5.424;2023-03-14T06:26:18;98939.34;;;9.50;88.75
72086;BME280;64750;52.134;5.424;2023-03-14T06:28:44;98940.16;;;9.51;88.73
72086;BME280;64750;52.134;5.424;2023-03-14T06:31:11;98949.38;;;9.45;89.03
72086;BME280;64750;52.134;5.424;2023-03-14T06:33:37;98954.91;;;9.42;89.05
72086;BME280;64750;52.134;5.424;2023-03-14T06:36:04;98970.63;;;9.42;89.17
72086;BME280;64750;52.134;5.424;2023-03-14T06:38:30;98985.94;;;9.37;89.36
72086;BME280;64750;52.134;5.424;2023-03-14T06:41:03;99009.19;;;9.30;89.73
72086;BME280;64750;52.134;5.424;2023-03-14T06:43:29;99010.03;;;9.31;89.80
72086;BME280;64750;52.134;5.424;2023-03-14T06:45:55;99013.88;;;9.27;89.72
72086;BME280;64750;52.134;5.424;2023-03-14T06:48:22;99038.69;;;9.23;89.61
72086;BME280;64750;52.134;5.424;2023-03-14T06:50:49;99051.28;;;9.08;87.85
72086;BME280;64750;52.134;5.424;2023-03-14T06:53:15;99053.38;;;8.93;86.72
72086;BME280;64750;52.134;5.424;2023-03-14T06:55:42;99063.16;;;8.79;85.61
72086;BME280;64750;52.134;5.424;2023-03-14T06:58:09;99072.69;;;8.80;86.72
72086;BME280;64750;52.134;5.424;2023-03-14T07:00:35;99075.22;;;8.82;86.54
72086;BME280;64750;52.134;5.424;2023-03-14T07:03:02;99087.47;;;8.81;86.85
72086;BME280;64750;52.134;5.424;2023-03-14T07:05:28;99093.69;;;8.69;86.45
72086;BME280;64750;52.134;5.424;2023-03-14T07:07:55;99095.16;;;8.62;86.51
72086;BME280;64750;52.134;5.424;2023-03-14T07:10:22;99101.66;;;8.67;86.78
72086;BME280;64750;52.134;5.424;2023-03-14T07:12:48;99111.56;;;8.64;86.85
72086;BME280;64750;52.134;5.424;2023-03-14T07:15:15;99120.84;;;8.68;86.74
72086;BME280;64750;52.134;5.424;2023-03-14T07:17:44;99122.75;;;8.66;86.73
72086;BME280;64750;52.134;5.424;2023-03-14T07:20:11;99133.72;;;8.60;87.15
72086;BME280;64750;52.134;5.424;2023-03-14T07:22:37;99145.06;;;8.49;87.28
72086;BME280;64750;52.134;5.424;2023-03-14T07:25:04;99156.78;;;8.43;86.40
72086;BME280;64750;52.134;5.424;2023-03-14T07:27:30;99164.63;;;8.32;86.87
72086;BME280;64750;52.134;5.424;2023-03-14T07:29:57;99180.34;;;8.32;86.77
72086;BME280;64750;52.134;5.424;2023-03-14T07:32:23;99190.94;;;8.30;86.94
72086;BME280;64750;52.134;5.424;2023-03-14T07:34:50;99201.53;;;8.29;86.66
72086;BME280;64750;52.134;5.424;2023-03-14T07:37:16;99210.81;;;8.21;86.88
72086;BME280;64750;52.134;5.424;2023-03-14T07:39:43;99220.44;;;8.21;86.72
72086;BME280;64750;52.134;5.424;2023-03-14T07:42:09;99227.66;;;8.06;85.74
72086;BME280;64750;52.134;5.424;2023-03-14T07:44:37;99238.38;;;8.03;86.21
72086;BME280;64750;52.134;5.424;2023-03-14T07:47:03;99246.38;;;8.13;86.69
72086;BME280;64750;52.134;5.424;2023-03-14T07:49:30;99258.97;;;8.19;86.56
72086;BME280;64750;52.134;5.424;2023-03-14T07:51:56;99270.75;;;8.13;85.82
72086;BME280;64750;52.134;5.424;2023-03-14T07:54:22;99282.28;;;8.11;86.60
72086;BME280;64750;52.134;5.424;2023-03-14T07:56:49;99291.69;;;8.13;86.18
72086;BME280;64750;52.134;5.424;2023-03-14T07:59:16;99297.63;;;8.04;85.78
72086;BME280;64750;52.134;5.424;2023-03-14T08:01:42;99310.81;;;8.02;85.87
72086;BME280;64750;52.134;5.424;2023-03-14T08:04:09;99345.03;;;7.75;85.42
72086;BME280;64750;52.134;5.424;2023-03-14T08:06:36;99361.41;;;7.66;84.53
72086;BME280;64750;52.134;5.424;2023-03-14T08:09:03;99374.75;;;7.50;84.52
72086;BME280;64750;52.134;5.424;2023-03-14T08:11:30;99390.16;;;7.29;84.30
72086;BME280;64750;52.134;5.424;2023-03-14T08:13:56;99399.69;;;7.17;84.19
72086;BME280;64750;52.134;5.424;2023-03-14T08:16:23;99396.16;;;7.18;84.56
72086;BME280;64750;52.134;5.424;2023-03-14T08:18:49;99419.22;;;7.24;83.55
72086;BME280;64750;52.134;5.424;2023-03-14T08:21:16;99430.94;;;7.18;82.77
72086;BME280;64750;52.134;5.424;2023-03-14T08:23:42;99435.75;;;6.99;81.98
72086;BME280;64750;52.134;5.424;2023-03-14T08:26:08;99457.25;;;6.89;81.18
72086;BME280;64750;52.134;5.424;2023-03-14T08:28:35;99469.06;;;6.82;82.34
72086;BME280;64750;52.134;5.424;2023-03-14T08:31:02;99488.28;;;6.81;82.77
72086;BME280;64750;52.134;5.424;2023-03-14T08:33:29;99496.91;;;6.69;82.79
72086;BME280;64750;52.134;5.424;2023-03-14T08:35:57;99501.16;;;6.57;83.47
72086;BME280;64750;52.134;5.424;2023-03-14T08:38:24;99499.81;;;6.51;83.41
72086;BME280;64750;52.134;5.424;2023-03-14T08:40:58;99523.84;;;6.56;83.78
72086;BME280;64750;52.134;5.424;2023-03-14T08:43:26;99536.34;;;6.51;83.10
72086;BME280;64750;52.134;5.424;2023-03-14T08:45:53;99539.50;;;6.56;82.96
72086;BME280;64750;52.134;5.424;2023-03-14T08:48:19;99544.31;;;6.63;83.36
72086;BME280;64750;52.134;5.424;2023-03-14T08:50:46;99564.19;;;6.65;82.62
72086;BME280;64750;52.134;5.424;2023-03-14T08:53:12;99575.16;;;6.70;82.86
72086;BME280;64750;52.134;5.424;2023-03-14T08:55:39;99580.81;;;6.77;82.48
72086;BME280;64750;52.134;5.424;2023-03-14T08:58:05;99610.88;;;6.70;80.19
72086;BME280;64750;52.134;5.424;2023-03-14T09:00:32;99607.53;;;6.53;80.80
72086;BME280;64750;52.134;5.424;2023-03-14T09:02:58;99607.59;;;6.66;81.06
72086;BME280;64750;52.134;5.424;2023-03-14T09:05:24;99613.69;;;6.67;80.87
72086;BME280;64750;52.134;5.424;2023-03-14T09:07:51;99636.31;;;6.81;81.10
72086;BME280;64750;52.134;5.424;2023-03-14T09:10:17;99642.63;;;6.91;81.14
72086;BME280;64750;52.134;5.424;2023-03-14T09:12:44;99654.09;;;6.88;80.75
72086;BME280;64750;52.134;5.424;2023-03-14T09:15:10;99662.47;;;6.94;80.93
72086;BME280;64750;52.134;5.424;2023-03-14T09:17:37;99681.16;;;6.87;79.74
72086;BME280;64750;52.134;5.424;2023-03-14T09:20:03;99698.78;;;6.84;78.76
72086;BME280;64750;52.134;5.424;2023-03-14T09:22:33;99704.09;;;6.82;78.38
72086;BME280;64750;52.134;5.424;2023-03-14T09:25:03;99705.03;;;6.81;78.52
72086;BME280;64750;52.134;5.424;2023-03-14T09:27:29;99712.88;;;6.81;78.14
72086;BME280;64750;52.134;5.424;2023-03-14T09:29:56;99719.94;;;6.79;77.81
72086;BME280;64750;52.134;5.424;2023-03-14T09:32:22;99719.94;;;6.79;78.01
72086;BME280;64750;52.134;5.424;2023-03-14T09:34:49;99738.22;;;6.79;77.12
72086;BME280;64750;52.134;5.424;2023-03-14T09:37:15;99737.69;;;6.74;76.76
72086;BME280;64750;52.134;5.424;2023-03-14T09:39:42;99749.34;;;6.83;76.98
72086;BME280;64750;52.134;5.424;2023-03-14T09:42:14;99754.84;;;6.93;77.44
72086;BME280;64750;52.134;5.424;2023-03-14T09:45:02;99772.81;;;6.97;77.26
72086;BME280;64750;52.134;5.424;2023-03-14T09:47:33;99784.69;;;6.88;76.46
72086;BME280;64750;52.134;5.424;2023-03-14T09:50:03;99785.31;;;6.92;76.27
72086;BME280;64750;52.134;5.424;2023-03-14T09:52:36;99803.44;;;6.95;75.55
72086;BME280;64750;52.134;5.424;2023-03-14T09:55:11;99805.97;;;6.82;74.47
72086;BME280;64750;52.134;5.424;2023-03-14T09:57:40;99816.03;;;6.88;74.51
72086;BME280;64750;52.134;5.424;2023-03-14T10:00:17;99827.22;;;6.90;74.84
72086;BME280;64750;52.134;5.424;2023-03-14T10:03:06;99836.16;;;7.01;75.86
72086;BME280;64750;52.134;5.424;2023-03-14T10:05:41;99828.41;;;7.14;76.34
72086;BME280;64750;52.134;5.424;2023-03-14T10:08:12;99856.44;;;7.12;75.18
72086;BME280;64750;52.134;5.424;2023-03-14T10:10:39;99850.81;;;7.03;75.19
72086;BME280;64750;52.134;5.424;2023-03-14T10:13:19;99883.75;;;7.06;75.34
72086;BME280;64750;52.134;5.424;2023-03-14T10:15:52;99887.59;;;7.00;75.25
72086;BME280;64750;52.134;5.424;2023-03-14T10:18:19;99912.38;;;6.79;75.53
72086;BME280;64750;52.134;5.424;2023-03-14T10:20:48;99914.31;;;6.61;75.43
72086;BME280;64750;52.134;5.424;2023-03-14T10:25:44;99937.16;;;6.57;77.52
72086;BME280;64750;52.134;5.424;2023-03-14T10:28:24;99943.81;;;6.63;78.56
72086;BME280;64750;52.134;5.424;2023-03-14T10:30:50;99945.44;;;6.64;76.45
72086;BME280;64750;52.134;5.424;2023-03-14T10:33:26;99950.78;;;6.77;78.15
72086;BME280;64750;52.134;5.424;2023-03-14T10:35:55;99970.06;;;6.90;77.07
72086;BME280;64750;52.134;5.424;2023-03-14T10:38:24;99972.56;;;6.92;77.28
72086;BME280;64750;52.134;5.424;2023-03-14T10:40:52;99984.34;;;6.99;76.92
72086;BME280;64750;52.134;5.424;2023-03-14T10:43:24;99995.63;;;6.99;76.70
72086;BME280;64750;52.134;5.424;2023-03-14T10:45:57;100000.59;;;7.04;76.53
72086;BME280;64750;52.134;5.424;2023-03-14T10:48:34;100018.69;;;7.07;76.14
72086;BME280;64750;52.134;5.424;2023-03-14T10:53:49;100061.34;;;6.77;71.23
72086;BME280;64750;52.134;5.424;2023-03-14T10:56:19;100062.03;;;6.65;72.04
72086;BME280;64750;52.134;5.424;2023-03-14T10:59:10;100074.84;;;6.69;72.26
72086;BME280;64750;52.134;5.424;2023-03-14T11:01:57;100076.78;;;6.66;74.14
72086;BME280;64750;52.134;5.424;2023-03-14T11:07:09;100101.38;;;6.62;74.27
72086;BME280;64750;52.134;5.424;2023-03-14T11:09:45;100113.53;;;6.63;71.26
72086;BME280;64750;52.134;5.424;2023-03-14T11:12:35;100121.16;;;6.66;69.47
72086;BME280;64750;52.134;5.424;2023-03-14T11:15:34;100124.69;;;6.65;68.74
72086;BME280;64750;52.134;5.424;2023-03-14T11:18:12;100140.47;;;6.63;68.55
72086;BME280;64750;52.134;5.424;2023-03-14T11:23:21;100149.22;;;6.78;67.34
72086;BME280;64750;52.134;5.424;2023-03-14T11:28:38;100166.13;;;7.03;67.47
72086;BME280;64750;52.134;5.424;2023-03-14T11:34:13;100177.31;;;7.21;64.54
72086;BME280;64750;52.134;5.424;2023-03-14T11:36:48;100203.13;;;7.27;65.63
72086;BME280;64750;52.134;5.424;2023-03-14T11:39:19;100192.06;;;7.22;64.26
72086;BME280;64750;52.134;5.424;2023-03-14T11:41:49;100208.06;;;7.32;65.89
72086;BME280;64750;52.134;5.424;2023-03-14T11:44:33;100207.91;;;7.35;62.13
72086;BME280;64750;52.134;5.424;2023-03-14T11:47:32;100216.41;;;7.38;61.02
72086;BME280;64750;52.134;5.424;2023-03-14T11:52:39;100243.41;;;7.39;60.17
72086;BME280;64750;52.134;5.424;2023-03-14T11:57:45;100249.88;;;7.32;60.10
72086;BME280;64750;52.134;5.424;2023-03-14T12:00:20;100253.50;;;7.45;58.60
72086;BME280;64750;52.134;5.424;2023-03-14T12:03:10;100256.56;;;7.37;57.01
72086;BME280;64750;52.134;5.424;2023-03-14T12:08:32;100262.44;;;7.57;58.27
72086;BME280;64750;52.134;5.424;2023-03-14T12:11:19;100282.66;;;7.53;57.03
72086;BME280;64750;52.134;5.424;2023-03-14T12:13:51;100272.41;;;7.50;56.13
72086;BME280;64750;52.134;5.424;2023-03-14T12:16:38;100287.25;;;7.50;56.39
72086;BME280;64750;52.134;5.424;2023-03-14T12:19:14;100299.56;;;7.48;57.60
72086;BME280;64750;52.134;5.424;2023-03-14T12:21:56;100294.44;;;7.46;56.82
72086;BME280;64750;52.134;5.424;2023-03-14T12:24:27;100288.44;;;7.44;56.12
72086;BME280;64750;52.134;5.424;2023-03-14T12:27:00;100311.78;;;7.47;54.93
72086;BME280;64750;52.134;5.424;2023-03-14T12:29:27;100310.50;;;7.54;56.17
72086;BME280;64750;52.134;5.424;2023-03-14T12:34:27;100324.16;;;7.76;55.69
72086;BME280;64750;52.134;5.424;2023-03-14T12:37:00;100336.00;;;7.67;54.24
72086;BME280;64750;52.134;5.424;2023-03-14T12:39:33;100331.00;;;7.62;54.28
72086;BME280;64750;52.134;5.424;2023-03-14T12:42:12;100334.91;;;7.55;51.54
72086;BME280;64750;52.134;5.424;2023-03-14T12:44:47;100329.59;;;7.57;52.38
72086;BME280;64750;52.134;5.424;2023-03-14T12:49:50;100338.94;;;7.61;53.24
72086;BME280;64750;52.134;5.424;2023-03-14T12:52:22;100347.03;;;7.72;53.94
72086;BME280;64750;52.134;5.424;2023-03-14T12:57:42;100363.13;;;7.80;54.53
72086;BME280;64750;52.134;5.424;2023-03-14T13:00:23;100365.16;;;7.75;51.40
72086;BME280;64750;52.134;5.424;2023-03-14T13:02:50;100376.25;;;7.64;50.06
72086;BME280;64750;52.134;5.424;2023-03-14T13:05:23;100388.97;;;7.54;51.97
72086;BME280;64750;52.134;5.424;2023-03-14T13:10:26;100399.59;;;7.51;51.84
72086;BME280;64750;52.134;5.424;2023-03-14T13:13:15;100408.03;;;7.57;51.51
72086;BME280;64750;52.134;5.424;2023-03-14T13:15:46;100407.72;;;7.63;51.15
72086;BME280;64750;52.134;5.424;2023-03-14T13:18:30;100433.34;;;7.56;48.45
72086;BME280;64750;52.134;5.424;2023-03-14T13:21:03;100419.75;;;7.49;49.57
72086;BME280;64750;52.134;5.424;2023-03-14T13:23:33;100423.75;;;7.57;51.36
72086;BME280;64750;52.134;5.424;2023-03-14T13:26:01;100428.63;;;7.63;49.60
72086;BME280;64750;52.134;5.424;2023-03-14T13:28:29;100444.66;;;7.57;50.07
72086;BME280;64750;52.134;5.424;2023-03-14T13:31:05;100449.31;;;7.67;51.11
72086;BME280;64750;52.134;5.424;2023-03-14T13:33:33;100449.66;;;7.77;50.14
72086;BME280;64750;52.134;5.424;2023-03-14T13:36:03;100459.00;;;7.81;50.12
72086;BME280;64750;52.134;5.424;2023-03-14T13:38:32;100468.88;;;7.76;48.41
72086;BME280;64750;52.134;5.424;2023-03-14T13:41:00;100473.69;;;7.68;46.93
72086;BME280;64750;52.134;5.424;2023-03-14T13:43:39;100462.69;;;7.61;47.62
72086;BME280;64750;52.134;5.424;2023-03-14T13:46:13;100489.53;;;7.65;48.08
72086;BME280;64750;52.134;5.424;2023-03-14T13:49:04;100490.22;;;7.68;48.31
72086;BME280;64750;52.134;5.424;2023-03-14T13:51:31;100494.69;;;7.66;47.77
72086;BME280;64750;52.134;5.424;2023-03-14T13:54:02;100512.66;;;7.57;48.48
72086;BME280;64750;52.134;5.424;2023-03-14T13:56:32;100517.13;;;7.54;49.68
72086;BME280;64750;52.134;5.424;2023-03-14T13:58:59;100517.19;;;7.53;50.14
72086;BME280;64750;52.134;5.424;2023-03-14T14:01:32;100527.97;;;7.47;51.19